createdAt,value
2022-08-26T18:37:35.555Z,57.64
2022-08-26T18:40:02.677Z,57.01
2022-08-26T18:42:31.158Z,56.90
2022-08-26T18:44:58.239Z,56.88
2022-08-26T18:47:25.283Z,56.88
2022-08-26T18:49:52.407Z,56.95
2022-08-26T18:52:19.451Z,56.67
2022-08-26T18:54:46.714Z,56.82
2022-08-26T18:57:13.925Z,56.73
2022-08-26T18:59:41.065Z,57.02
2022-08-26T19:02:08.211Z,56.92
2022-08-26T19:04:35.379Z,56.29
2022-08-26T19:07:02.451Z,56.29
2022-08-26T19:09:31.167Z,56.40
2022-08-26T19:11:58.827Z,56.44
2022-08-26T19:14:25.867Z,56.25
2022-08-26T19:16:52.965Z,55.92
2022-08-26T19:19:20.121Z,56.37
2022-08-26T19:21:47.210Z,56.14
2022-08-26T19:24:15.713Z,56.00
2022-08-26T19:26:42.893Z,55.88
2022-08-26T19:29:10.063Z,55.46
2022-08-26T19:31:37.183Z,55.91
2022-08-26T19:34:05.327Z,56.14
2022-08-26T19:36:32.377Z,56.10
2022-08-26T19:39:00.231Z,55.89
2022-08-26T19:41:36.999Z,55.73
2022-08-26T19:44:04.802Z,55.88
2022-08-26T19:46:32.713Z,55.86
2022-08-26T19:48:59.844Z,55.63
2022-08-26T19:51:26.916Z,55.02
2022-08-26T19:53:53.963Z,55.06
2022-08-26T19:56:21.465Z,55.41
2022-08-26T19:58:48.532Z,55.26
2022-08-26T20:01:15.739Z,55.14
2022-08-26T20:03:42.946Z,55.46
2022-08-26T20:06:10.010Z,54.96
2022-08-26T20:08:37.052Z,55.38
2022-08-26T20:11:06.009Z,55.58
2022-08-26T20:13:33.087Z,55.26
2022-08-26T20:16:00.265Z,55.07
2022-08-26T20:18:46.143Z,55.41
2022-08-26T20:21:29.251Z,55.28
2022-08-26T20:23:56.398Z,55.41
2022-08-26T20:26:23.444Z,55.17
2022-08-26T20:28:51.093Z,55.01
2022-08-26T20:31:19.479Z,55.02
2022-08-26T20:33:46.812Z,54.96
2022-08-26T20:36:13.859Z,55.02
2022-08-26T20:38:40.916Z,54.84
2022-08-26T20:41:08.054Z,54.95
2022-08-26T20:43:35.135Z,54.86
2022-08-26T20:46:02.429Z,54.95
2022-08-26T20:48:35.314Z,54.88
2022-08-26T20:51:02.344Z,54.88
2022-08-26T20:53:29.461Z,54.89
2022-08-26T20:55:56.509Z,55.05
2022-08-26T20:58:23.538Z,54.92
2022-08-26T21:00:50.667Z,54.66
2022-08-26T21:03:17.812Z,54.25
2022-08-26T21:05:45.280Z,54.79
2022-08-26T21:08:13.192Z,55.27
2022-08-26T21:10:40.423Z,55.19
2022-08-26T21:13:07.451Z,54.98
2022-08-26T21:15:35.678Z,54.98
2022-08-26T21:18:03.562Z,54.82
2022-08-26T21:20:30.742Z,54.76
2022-08-26T21:22:57.791Z,54.77
2022-08-26T21:25:24.856Z,54.34
2022-08-26T21:27:51.935Z,54.68
2022-08-26T21:30:18.991Z,54.76
2022-08-26T21:32:46.046Z,54.71
2022-08-26T21:35:13.084Z,54.48
2022-08-26T21:37:40.148Z,54.32
2022-08-26T21:40:07.782Z,54.40
2022-08-26T21:42:34.949Z,54.14
2022-08-26T21:45:02.049Z,54.28
2022-08-26T21:47:30.293Z,53.93
2022-08-26T21:49:57.410Z,54.04
2022-08-26T21:52:24.493Z,54.06
2022-08-26T21:54:51.591Z,54.00
2022-08-26T21:57:19.574Z,54.13
2022-08-26T21:59:46.677Z,54.01
2022-08-26T22:02:13.903Z,53.98
2022-08-26T22:04:44.552Z,53.80
2022-08-26T22:07:13.980Z,54.05
2022-08-26T22:09:41.889Z,54.06
2022-08-26T22:12:11.614Z,54.45
2022-08-26T22:14:39.652Z,54.62
2022-08-26T22:17:06.724Z,54.68
2022-08-26T22:19:34.568Z,54.79
2022-08-26T22:22:13.087Z,54.64
2022-08-26T22:24:40.170Z,54.86
2022-08-26T22:27:07.275Z,54.47
2022-08-26T22:29:34.348Z,54.85
2022-08-26T22:32:01.528Z,55.08
2022-08-26T22:34:28.666Z,54.68
2022-08-26T22:36:55.766Z,55.15
2022-08-26T22:39:22.857Z,54.83
2022-08-26T22:41:49.922Z,54.99
2022-08-26T22:44:16.964Z,55.23
2022-08-26T22:46:44.295Z,55.05
2022-08-26T22:49:12.178Z,54.74
2022-08-26T22:51:39.323Z,55.03
2022-08-26T22:54:06.466Z,55.25
2022-08-26T22:56:33.576Z,55.20
2022-08-26T22:59:00.618Z,54.78
2022-08-26T23:01:27.701Z,55.11
2022-08-26T23:03:54.813Z,55.17
2022-08-26T23:06:21.892Z,54.88
2022-08-26T23:08:49.423Z,55.25
2022-08-26T23:11:16.546Z,54.86
2022-08-26T23:13:43.649Z,54.67
2022-08-26T23:16:11.116Z,55.04
2022-08-26T23:18:38.516Z,54.95
2022-08-26T23:21:06.048Z,54.67
2022-08-26T23:23:33.099Z,54.97
2022-08-26T23:26:03.245Z,54.62
2022-08-26T23:28:32.721Z,55.03
2022-08-26T23:31:00.184Z,55.06
2022-08-26T23:33:47.213Z,54.64
2022-08-26T23:36:17.583Z,54.57
2022-08-26T23:38:45.268Z,55.05
2022-08-26T23:41:19.595Z,54.97
2022-08-26T23:43:46.638Z,54.88
2022-08-26T23:46:14.375Z,54.97
2022-08-26T23:48:41.460Z,54.66
2022-08-26T23:51:27.356Z,54.69
2022-08-26T23:53:54.392Z,54.95
2022-08-26T23:56:21.443Z,54.99
2022-08-26T23:58:48.547Z,54.80
